KGEG/GEG METAR and TAF weather

Enter ICAO airport designator
Station Type Date Time Source
KGEG METAR 2024/07/13 02:53 UTC NOAA

KGEG 130253Z 25004KT 10SM CLR 34/04 A2996 RMK AO2 SLP121 T03390044 56003


Station Type Date Time Source
KGEG Decoded METAR 2024/07/13 02:53 UTC NOAA

SPOKANE INTERNATIONAL AIRPORT , WA, United States (KGEG) 47-37N 117-32W 735M
Jul 12, 2024 - 10:53 PM EDT / 2024.07.13 0253 UTC
Wind: from the WSW (250 degrees) at 5 MPH (4 KT):0
Visibility: 10 mile(s):0
Sky conditions: clear
Temperature: 93.0 F (33.9 C)
Dew Point: 39.9 F (4.4 C)
Relative Humidity: 15%
Pressure (altimeter): 29.96 in. Hg (1014 hPa)
Pressure tendency: 0.01 inches (0.3 hPa) lower than three hours ago
ob: KGEG 130253Z 25004KT 10SM CLR 34/04 A2996 RMK AO2 SLP121 T03390044 56003
cycle: 3

Station Type Date Time Source
KGEG TAF 2024/07/12 18:22 UTC NOAA